Time;durP1;ratioP1;P1;durP2;ratioP2;P2;SDS_P1;SDS_P2;PMS_P1;PMS_P2;Temp;Humidity;BMP_temperature;BMP_pressure;BME280_temperature;BME280_humidity;BME280_pressure;Samples;Min_cycle;Max_cycle;Signal;HPM_P1;HPM_P2
2021/09/17 00:00:14;;;;;;;1999.90;999.90;;;;;;;11.70;55.50;100972.22;4982410;28;96892;-75
2021/09/17 00:02:42;;;;;;;1999.90;999.90;;;;;;;11.68;55.55;100978.38;4965789;28;98645;-75
2021/09/17 00:05:11;;;;;;;1999.90;999.90;;;;;;;11.63;55.62;100970.31;4960726;28;100417;-76
2021/09/17 00:07:39;;;;;;;1999.90;999.90;;;;;;;11.61;55.72;100977.38;4982484;28;96879;-75
2021/09/17 00:10:09;;;;;;;1999.90;999.90;;;;;;;11.60;55.82;100977.31;4966710;28;98001;-75
2021/09/17 00:12:37;;;;;;;1999.90;999.90;;;;;;;11.56;55.78;100965.69;4983192;28;100042;-75
2021/09/17 00:15:08;;;;;;;1999.90;999.90;;;;;;;11.54;55.92;100969.22;4976343;28;99201;-76
2021/09/17 00:17:36;;;;;;;1999.90;999.90;;;;;;;11.57;55.61;100966.59;4982262;28;97276;-75
2021/09/17 00:20:06;;;;;;;1999.90;999.90;;;;;;;11.59;55.52;100967.53;4966089;28;97229;-76
2021/09/17 00:22:34;;;;;;;1999.90;999.90;;;;;;;11.60;55.40;100967.56;4980416;28;100482;-75
2021/09/17 00:25:03;;;;;;;1999.90;999.90;;;;;;;11.64;55.44;100965.84;4980643;28;99359;-75
2021/09/17 00:27:31;;;;;;;1999.90;999.90;;;;;;;11.66;55.56;100965.03;4980946;28;97704;-75
2021/09/17 00:29:59;;;;;;;1999.90;999.90;;;;;;;11.68;55.37;100968.63;4975930;28;96863;-75
2021/09/17 00:32:29;;;;;;;1999.90;999.90;;;;;;;11.69;55.36;100974.88;4980124;28;97077;-75
2021/09/17 00:34:57;;;;;;;1999.90;999.90;;;;;;;11.68;55.45;100968.63;4980772;28;98508;-75
2021/09/17 00:37:26;;;;;;;1999.90;999.90;;;;;;;11.67;55.39;100966.81;4976026;28;97099;-75
2021/09/17 00:39:54;;;;;;;1999.90;999.90;;;;;;;11.65;55.35;100971.22;4966396;28;96962;-74
2021/09/17 00:42:22;;;;;;;1999.90;999.90;;;;;;;11.64;55.39;100972.09;4978568;28;100214;-74
2021/09/17 00:44:49;;;;;;;1999.90;999.90;;;;;;;11.62;55.39;100973.81;4968056;28;99485;-74
2021/09/17 00:47:18;;;;;;;1999.90;999.90;;;;;;;11.61;55.34;100966.72;4973231;28;96859;-75
2021/09/17 00:49:47;;;;;;;1999.90;999.90;;;;;;;11.60;55.48;100967.56;4982745;28;96863;-76
2021/09/17 00:52:15;;;;;;;1999.90;999.90;;;;;;;11.61;55.46;100966.72;4983702;28;99687;-76
2021/09/17 00:54:43;;;;;;;1999.90;999.90;;;;;;;11.59;55.49;100968.44;4982102;28;99709;-76
2021/09/17 00:57:11;;;;;;;1999.90;999.90;;;;;;;11.58;55.43;100958.63;4981467;28;97124;-75
2021/09/17 00:59:39;;;;;;;1999.90;999.90;;;;;;;11.60;55.32;100966.66;4975169;28;96954;-76
2021/09/17 01:02:07;;;;;;;1999.90;999.90;;;;;;;11.60;55.49;100966.66;4980913;28;99045;-76
2021/09/17 01:04:35;;;;;;;1999.90;999.90;;;;;;;11.57;55.48;100969.28;4981016;28;97774;-75
2021/09/17 01:07:05;;;;;;;1999.90;999.90;;;;;;;11.57;55.38;100970.19;4990548;28;96952;-76
2021/09/17 01:09:33;;;;;;;1999.90;999.90;;;;;;;11.54;55.42;100964.81;4981562;28;96802;-76
2021/09/17 01:12:04;;;;;;;1999.90;999.90;;;;;;;11.49;55.54;100961.13;4976129;28;99692;-76
2021/09/17 01:14:33;;;;;;;1999.90;999.90;;;;;;;11.88;54.71;100966.34;4981289;28;97767;-75
2021/09/17 01:17:01;;;;;;;1999.90;999.90;;;;;;;11.65;55.08;100962.34;4962516;28;97342;-76
2021/09/17 01:19:29;;;;;;;1999.90;999.90;;;;;;;12.02;54.37;100963.03;4981916;28;96927;-76
2021/09/17 01:21:58;;;;;;;1999.90;999.90;;;;;;;12.22;53.82;100962.56;4980086;28;97697;-76
2021/09/17 01:24:26;;;;;;;1999.90;999.90;;;;;;;12.32;53.66;100959.16;4980246;28;97991;-75
2021/09/17 01:26:55;;;;;;;1999.90;999.90;;;;;;;12.40;53.29;100957.53;4981767;28;96937;-76
2021/09/17 01:29:23;;;;;;;1999.90;999.90;;;;;;;12.02;54.27;100960.38;4981016;28;96840;-75
2021/09/17 01:31:51;;;;;;;1999.90;999.90;;;;;;;11.83;54.68;100949.34;4966064;28;99404;-75
2021/09/17 01:34:21;;;;;;;1999.90;999.90;;;;;;;11.72;55.12;100951.81;4965133;28;98347;-76
2021/09/17 01:36:50;;;;;;;1999.90;999.90;;;;;;;11.61;55.36;100940.06;4984624;28;97205;-76
2021/09/17 01:39:21;;;;;;;1999.90;999.90;;;;;;;11.60;55.20;100946.25;4966371;28;97305;-76
2021/09/17 01:41:49;;;;;;;1999.90;999.90;;;;;;;11.60;55.15;100943.56;4983106;28;98712;-76
2021/09/17 01:44:17;;;;;;;1999.90;999.90;;;;;;;11.55;55.37;100939.94;4982385;28;99029;-76
2021/09/17 01:46:45;;;;;;;1999.90;999.90;;;;;;;11.53;55.35;100940.75;4974781;28;98209;-76
2021/09/17 01:49:13;;;;;;;1999.90;999.90;;;;;;;11.94;54.24;100946.00;4981372;28;96904;-76
2021/09/17 01:51:41;;;;;;;1999.90;999.90;;;;;;;11.71;55.07;100941.09;4981964;28;98865;-75
2021/09/17 01:54:09;;;;;;;1999.90;999.90;;;;;;;12.07;54.21;100937.34;4981820;28;99197;-75
2021/09/17 01:56:38;;;;;;;1999.90;999.90;;;;;;;11.80;54.72;100944.84;4982807;28;98060;-76
2021/09/17 01:59:06;;;;;;;1999.90;999.90;;;;;;;11.64;55.29;100934.78;4980363;28;97168;-75
2021/09/17 02:01:34;;;;;;;1999.90;999.90;;;;;;;11.58;55.28;100933.78;4981940;28;96907;-76
2021/09/17 02:04:03;;;;;;;1999.90;999.90;;;;;;;11.52;55.44;100939.88;4964441;28;100696;-75
2021/09/17 02:06:30;;;;;;;1999.90;999.90;;;;;;;11.49;55.46;100938.91;4977315;28;97185;-75
2021/09/17 02:08:58;;;;;;;1999.90;999.90;;;;;;;11.46;55.46;100933.50;4985308;28;96896;-76
2021/09/17 02:11:26;;;;;;;1999.90;999.90;;;;;;;11.42;55.65;100927.22;4983132;28;98602;-75
2021/09/17 02:13:58;;;;;;;1999.90;999.90;;;;;;;11.34;55.76;100928.84;4997967;28;99599;-75
2021/09/17 02:16:26;;;;;;;1999.90;999.90;;;;;;;11.26;55.90;100937.50;4980934;28;96920;-75
2021/09/17 02:18:54;;;;;;;1999.90;999.90;;;;;;;11.21;55.93;100924.97;4983258;28;96820;-75
2021/09/17 02:21:22;;;;;;;1999.90;999.90;;;;;;;11.15;55.97;100929.28;4991301;28;100011;-77
2021/09/17 02:23:50;;;;;;;1999.90;999.90;;;;;;;11.15;55.89;100931.97;4962251;28;99411;-76
2021/09/17 02:26:19;;;;;;;1999.90;999.90;;;;;;;11.16;55.80;100928.41;4982731;28;96881;-76
2021/09/17 02:28:47;;;;;;;1999.90;999.90;;;;;;;11.13;55.95;100929.28;4981938;28;97023;-75
2021/09/17 02:31:17;;;;;;;1999.90;999.90;;;;;;;11.10;55.80;100933.63;4978512;28;101529;-75
2021/09/17 02:33:45;;;;;;;1999.90;999.90;;;;;;;11.09;55.86;100927.41;4983113;28;98906;-76
2021/09/17 02:36:13;;;;;;;1999.90;999.90;;;;;;;11.10;55.85;100925.66;4982487;28;96932;-75
2021/09/17 02:38:41;;;;;;;1999.90;999.90;;;;;;;11.07;56.04;100936.22;4982697;28;96914;-75
2021/09/17 02:41:09;;;;;;;1999.90;999.90;;;;;;;11.05;55.77;100932.59;4963608;28;100668;-77
2021/09/17 02:43:37;;;;;;;1999.90;999.90;;;;;;;11.06;55.75;100932.69;4982420;28;97561;-77
2021/09/17 02:46:05;;;;;;;1999.90;999.90;;;;;;;11.04;55.82;100922.84;4983126;28;96859;-77
2021/09/17 02:48:34;;;;;;;1999.90;999.90;;;;;;;10.98;55.83;100933.34;4980630;28;97191;-77
2021/09/17 02:51:02;;;;;;;1999.90;999.90;;;;;;;10.96;56.14;100928.00;4982942;28;99355;-77
2021/09/17 02:53:30;;;;;;;1999.90;999.90;;;;;;;10.91;56.25;100927.00;4965207;28;97971;-78
2021/09/17 02:55:58;;;;;;;1999.90;999.90;;;;;;;10.89;56.38;100927.81;4976914;28;97461;-77
2021/09/17 02:58:26;;;;;;;1999.90;999.90;;;;;;;10.87;56.29;100930.47;4975501;28;97490;-77
2021/09/17 03:00:54;;;;;;;1999.90;999.90;;;;;;;10.90;56.36;100921.66;4982715;28;98590;-78
2021/09/17 03:03:23;;;;;;;1999.90;999.90;;;;;;;10.94;56.26;100926.19;4981102;28;99541;-76
2021/09/17 03:05:52;;;;;;;1999.90;999.90;;;;;;;10.94;56.35;100926.19;4980578;28;96984;-77
2021/09/17 03:08:20;;;;;;;1999.90;999.90;;;;;;;10.95;56.38;100923.56;4975872;28;97682;-77
2021/09/17 03:10:48;;;;;;;1999.90;999.90;;;;;;;10.97;56.18;100920.91;4969490;28;99657;-76
2021/09/17 03:13:16;;;;;;;1999.90;999.90;;;;;;;11.00;56.36;100924.53;4981143;28;97647;-77
2021/09/17 03:15:44;;;;;;;1999.90;999.90;;;;;;;11.03;56.05;100929.03;4975507;28;97204;-77
2021/09/17 03:18:11;;;;;;;1999.90;999.90;;;;;;;10.97;56.34;100924.50;4983297;28;97040;-77
2021/09/17 03:20:39;;;;;;;1999.90;999.90;;;;;;;10.95;56.58;100927.97;4964074;28;97390;-77
2021/09/17 03:23:09;;;;;;;1999.90;999.90;;;;;;;10.89;56.66;100923.41;4957222;28;100018;-76
2021/09/17 03:25:37;;;;;;;1999.90;999.90;;;;;;;10.88;56.51;100920.72;4967032;28;96938;-77
2021/09/17 03:28:05;;;;;;;1999.90;999.90;;;;;;;10.85;56.56;100918.88;4969431;28;98840;-77
2021/09/17 03:30:33;;;;;;;1999.90;999.90;;;;;;;10.84;56.93;100919.75;4983414;28;99367;-77
2021/09/17 03:33:01;;;;;;;1999.90;999.90;;;;;;;10.81;57.13;100918.78;4975990;28;98823;-76
2021/09/17 03:35:29;;;;;;;1999.90;999.90;;;;;;;10.85;56.93;100925.97;4985745;28;96847;-77
2021/09/17 03:37:57;;;;;;;1999.90;999.90;;;;;;;10.76;57.01;100921.34;4984701;28;97831;-75
2021/09/17 03:40:26;;;;;;;1999.90;999.90;;;;;;;10.77;57.16;100923.16;4966622;28;97041;-76
2021/09/17 03:42:54;;;;;;;1999.90;999.90;;;;;;;10.79;57.10;100931.16;4983833;28;97823;-76
2021/09/17 03:45:23;;;;;;;1999.90;999.90;;;;;;;10.81;57.24;100929.44;4983609;28;97702;-76
2021/09/17 03:47:51;;;;;;;1999.90;999.90;;;;;;;10.84;56.95;100926.84;4987378;28;97087;-76
2021/09/17 03:50:19;;;;;;;1999.90;999.90;;;;;;;10.77;57.48;100922.25;4968849;28;99268;-76
2021/09/17 03:52:47;;;;;;;1999.90;999.90;;;;;;;10.72;57.43;100926.56;4984631;28;96837;-75
2021/09/17 03:55:15;;;;;;;1999.90;999.90;;;;;;;10.66;57.91;100922.00;4969020;28;97472;-75
2021/09/17 03:57:45;;;;;;;1999.90;999.90;;;;;;;10.66;57.57;100914.03;4985605;28;97315;-76
2021/09/17 04:00:14;;;;;;;1999.90;999.90;;;;;;;10.69;57.51;100907.84;4985664;28;99064;-77
2021/09/17 04:02:42;;;;;;;1999.90;999.90;;;;;;;10.68;57.74;100906.97;4971102;28;99820;-76
2021/09/17 04:05:11;;;;;;;1999.90;999.90;;;;;;;10.67;57.73;100913.13;4971558;28;96903;-77
2021/09/17 04:07:40;;;;;;;1999.90;999.90;;;;;;;10.64;57.84;100912.19;4988466;28;97003;-75
2021/09/17 04:10:10;;;;;;;1999.90;999.90;;;;;;;10.63;57.78;100915.72;5004475;28;97475;-75
2021/09/17 04:12:38;;;;;;;1999.90;999.90;;;;;;;10.62;57.88;100905.91;5002550;28;97136;-76
2021/09/17 04:15:09;;;;;;;1999.90;999.90;;;;;;;10.60;57.96;100904.97;4979850;28;96969;-76
2021/09/17 04:17:37;;;;;;;1999.90;999.90;;;;;;;10.59;58.10;100917.41;4972449;28;96704;-76
2021/09/17 04:20:07;;;;;;;1999.90;999.90;;;;;;;10.57;57.97;100902.25;4992258;28;99706;-76
2021/09/17 04:22:35;;;;;;;1999.90;999.90;;;;;;;10.57;58.03;100915.56;4991822;28;99491;-75
2021/09/17 04:25:05;;;;;;;1999.90;999.90;;;;;;;10.57;58.08;100910.25;4992448;28;96971;-76
2021/09/17 04:27:33;;;;;;;1999.90;999.90;;;;;;;10.57;58.00;100910.25;4991471;28;96965;-77
2021/09/17 04:30:03;;;;;;;1999.90;999.90;;;;;;;10.56;57.87;100908.44;5008188;28;97772;-77
2021/09/17 04:32:32;;;;;;;1999.90;999.90;;;;;;;10.95;57.53;100909.34;4990777;28;98943;-76
2021/09/17 04:35:01;;;;;;;1999.90;999.90;;;;;;;11.16;57.77;100912.44;4989362;28;97044;-77
2021/09/17 04:37:28;;;;;;;1999.90;999.90;;;;;;;11.30;57.57;100908.31;4987912;28;96917;-77
2021/09/17 04:39:56;;;;;;;1999.90;999.90;;;;;;;10.94;58.47;100913.75;4991458;28;96677;-76
2021/09/17 04:42:24;;;;;;;1999.90;999.90;;;;;;;10.82;58.66;100908.16;4987268;28;96956;-76
2021/09/17 04:44:52;;;;;;;1999.90;999.90;;;;;;;10.76;58.70;100910.69;4978355;28;97095;-77
2021/09/17 04:47:20;;;;;;;1999.90;999.90;;;;;;;10.70;58.65;100920.31;4963818;28;97155;-77
2021/09/17 04:49:49;;;;;;;1999.90;999.90;;;;;;;10.62;58.89;100913.91;4990584;28;99681;-77
2021/09/17 04:52:34;;;;;;;1999.90;999.90;;;;;;;11.05;57.87;100913.97;4985851;28;98204;-77
2021/09/17 04:55:03;;;;;;;1999.90;999.90;;;;;;;11.25;57.54;100917.94;4986111;28;97021;-77
2021/09/17 04:57:31;;;;;;;1999.90;999.90;;;;;;;11.36;57.27;100921.75;4982624;28;97062;-77
2021/09/17 04:59:59;;;;;;;1999.90;999.90;;;;;;;11.44;57.31;100920.16;4986720;28;98994;-78
2021/09/17 05:02:27;;;;;;;1999.90;999.90;;;;;;;11.51;57.20;100919.41;4965571;28;98884;-77
2021/09/17 05:04:57;;;;;;;1999.90;999.90;;;;;;;11.14;58.14;100924.84;4986923;28;96781;-78
2021/09/17 05:07:25;;;;;;;1999.90;999.90;;;;;;;11.01;58.39;100912.13;4983415;28;96922;-77
2021/09/17 05:09:53;;;;;;;1999.90;999.90;;;;;;;11.39;57.37;100915.59;4968003;28;97704;-77
2021/09/17 05:12:21;;;;;;;1999.90;999.90;;;;;;;11.10;58.03;100907.00;4958683;28;99240;-77
2021/09/17 05:14:49;;;;;;;1999.90;999.90;;;;;;;11.00;58.05;100919.22;4972616;28;97236;-76
2021/09/17 05:17:17;;;;;;;1999.90;999.90;;;;;;;10.92;58.29;100918.13;4961072;28;97226;-76
2021/09/17 05:19:45;;;;;;;1999.90;999.90;;;;;;;10.87;58.33;100918.91;4986088;28;99650;-77
2021/09/17 05:22:14;;;;;;;1999.90;999.90;;;;;;;10.80;58.41;100912.56;4967004;28;99399;-77
2021/09/17 05:24:42;;;;;;;1999.90;999.90;;;;;;;10.79;58.32;100915.19;4976543;28;96850;-77
2021/09/17 05:27:14;;;;;;;1999.90;999.90;;;;;;;10.75;58.15;100919.56;4984186;28;96959;-78
2021/09/17 05:29:42;;;;;;;1999.90;999.90;;;;;;;10.75;58.06;100915.97;4995658;28;100467;-77
2021/09/17 05:32:10;;;;;;;1999.90;999.90;;;;;;;11.13;56.52;100923.03;4984154;28;97728;-77
2021/09/17 05:34:38;;;;;;;1999.90;999.90;;;;;;;11.33;55.86;100919.03;4961764;28;97515;-77
2021/09/17 05:37:06;;;;;;;1999.90;999.90;;;;;;;11.46;55.41;100921.09;4983200;28;97085;-78
2021/09/17 05:39:36;;;;;;;1999.90;999.90;;;;;;;11.57;54.97;100914.22;4978973;28;99695;-77
2021/09/17 05:42:04;;;;;;;1999.90;999.90;;;;;;;11.66;54.56;100919.72;4982896;28;97860;-77
2021/09/17 05:44:32;;;;;;;1999.90;999.90;;;;;;;11.28;55.83;100918.03;4977405;28;97541;-76
2021/09/17 05:46:59;;;;;;;1999.90;999.90;;;;;;;11.61;55.03;100926.72;4982775;28;97404;-77
2021/09/17 05:49:27;;;;;;;1999.90;999.90;;;;;;;11.69;54.81;100926.88;4989690;28;98009;-77
2021/09/17 05:51:55;;;;;;;1999.90;999.90;;;;;;;11.29;55.59;100922.47;4978067;28;99243;-77
2021/09/17 05:54:23;;;;;;;1999.90;999.90;;;;;;;11.14;56.19;100924.84;4988282;28;96914;-77
2021/09/17 05:56:52;;;;;;;1999.90;999.90;;;;;;;11.05;56.33;100929.94;4961097;28;97173;-77
2021/09/17 05:59:20;;;;;;;1999.90;999.90;;;;;;;11.02;56.56;100924.56;4962055;28;98497;-78
2021/09/17 06:01:48;;;;;;;1999.90;999.90;;;;;;;11.40;55.56;100922.72;4985632;28;96998;-77
2021/09/17 06:04:16;;;;;;;1999.90;999.90;;;;;;;11.56;54.81;100915.06;4993542;28;97246;-77
2021/09/17 06:06:46;;;;;;;1999.90;999.90;;;;;;;11.65;54.68;100931.22;4984045;28;96895;-78
2021/09/17 06:09:14;;;;;;;1999.90;999.90;;;;;;;11.70;54.46;100929.56;4982787;28;97059;-77
2021/09/17 06:11:42;;;;;;;1999.90;999.90;;;;;;;11.73;54.34;100929.63;4985625;28;99142;-78
2021/09/17 06:14:12;;;;;;;1999.90;999.90;;;;;;;11.77;54.06;100917.25;4983713;28;97072;-77
2021/09/17 06:16:40;;;;;;;1999.90;999.90;;;;;;;11.82;54.10;100923.53;4967548;28;97628;-78
2021/09/17 06:19:08;;;;;;;1999.90;999.90;;;;;;;11.82;53.77;100918.22;4983413;28;98976;-76
2021/09/17 06:21:36;;;;;;;1999.90;999.90;;;;;;;11.34;55.34;100923.53;4984385;28;97595;-77
2021/09/17 06:24:04;;;;;;;1999.90;999.90;;;;;;;11.68;54.28;100925.97;4979460;28;97170;-78
2021/09/17 06:26:32;;;;;;;1999.90;999.90;;;;;;;11.78;53.69;100933.25;4977381;28;96873;-78
2021/09/17 06:29:05;;;;;;;1999.90;999.90;;;;;;;11.83;53.70;100920.94;4958377;28;99639;-77
2021/09/17 06:31:35;;;;;;;1999.90;999.90;;;;;;;11.84;53.73;100917.38;4968653;28;99751;-77
2021/09/17 06:34:05;;;;;;;1999.90;999.90;;;;;;;11.88;53.68;100924.56;4967734;28;97223;-77
2021/09/17 06:36:34;;;;;;;1999.90;999.90;;;;;;;11.92;53.48;100929.09;4999586;28;97265;-78
2021/09/17 06:39:02;;;;;;;1999.90;999.90;;;;;;;11.95;53.37;100925.56;4966348;28;98828;-78
2021/09/17 06:41:30;;;;;;;1999.90;999.90;;;;;;;11.91;53.44;100927.28;4966516;28;98898;-77
2021/09/17 06:43:59;;;;;;;1999.90;999.90;;;;;;;11.93;53.40;100927.31;4985566;28;96892;-78
2021/09/17 06:46:27;;;;;;;1999.90;999.90;;;;;;;11.45;54.95;100937.94;4986082;28;96957;-77
2021/09/17 06:48:56;;;;;;;1999.90;999.90;;;;;;;11.78;54.08;100929.72;4967059;28;98339;-77
2021/09/17 06:51:24;;;;;;;1999.90;999.90;;;;;;;11.88;53.62;100934.34;4983853;28;99253;-76
2021/09/17 06:53:52;;;;;;;1999.90;999.90;;;;;;;11.90;53.56;100933.50;4966557;28;96931;-78
2021/09/17 06:56:20;;;;;;;1999.90;999.90;;;;;;;11.47;54.68;100936.19;5003342;28;97309;-76
2021/09/17 06:58:49;;;;;;;1999.90;999.90;;;;;;;11.78;53.90;100938.59;4992706;28;98342;-79
2021/09/17 07:01:17;;;;;;;1999.90;999.90;;;;;;;11.38;54.84;100925.34;4987160;28;99197;-77
2021/09/17 07:03:46;;;;;;;1999.90;999.90;;;;;;;11.21;55.46;100932.97;4989213;28;97066;-77
2021/09/17 07:06:16;;;;;;;1999.90;999.90;;;;;;;11.16;55.40;100925.75;4966185;28;97298;-77
2021/09/17 07:08:44;;;;;;;1999.90;999.90;;;;;;;11.12;55.74;100931.91;4983125;28;97505;-77
2021/09/17 07:11:12;;;;;;;1999.90;999.90;;;;;;;11.07;55.78;100934.44;4986914;28;100949;-77
2021/09/17 07:13:40;;;;;;;1999.90;999.90;;;;;;;11.07;55.76;100930.88;4980947;28;97428;-77
2021/09/17 07:16:09;;;;;;;1999.90;999.90;;;;;;;11.03;55.68;100931.72;4980089;28;96962;-78
2021/09/17 07:18:36;;;;;;;1999.90;999.90;;;;;;;10.95;55.91;100926.22;4986950;28;99116;-78
2021/09/17 07:21:05;;;;;;;1999.90;999.90;;;;;;;10.92;56.06;100935.91;5002820;28;100881;-79
2021/09/17 07:23:35;;;;;;;1999.90;999.90;;;;;;;10.91;56.03;100932.34;4985000;28;96774;-78
2021/09/17 07:26:03;;;;;;;1999.90;999.90;;;;;;;10.94;55.96;100934.19;4964669;28;96891;-78
2021/09/17 07:28:32;;;;;;;1999.90;999.90;;;;;;;10.97;56.01;100936.88;4970899;28;99203;-77
2021/09/17 07:31:01;;;;;;;1999.90;999.90;;;;;;;11.00;55.52;100934.28;4974852;28;99804;-78
2021/09/17 07:33:31;;;;;;;1999.90;999.90;;;;;;;11.02;55.66;100935.22;4978571;28;96972;-77
2021/09/17 07:35:59;;;;;;;1999.90;999.90;;;;;;;11.01;55.58;100939.63;4988408;28;96927;-77
2021/09/17 07:38:27;;;;;;;1999.90;999.90;;;;;;;11.38;54.53;100933.34;4994373;28;100889;-78
2021/09/17 07:40:56;;;;;;;1999.90;999.90;;;;;;;11.58;54.05;100933.78;4970619;28;100579;-77
2021/09/17 07:43:24;;;;;;;1999.90;999.90;;;;;;;11.73;53.54;100944.69;4967734;28;97145;-78
2021/09/17 07:45:52;;;;;;;1999.90;999.90;;;;;;;11.87;53.17;100932.56;4970975;28;96908;-76
2021/09/17 07:48:20;;;;;;;1999.90;999.90;;;;;;;11.95;52.94;100930.91;4985509;28;98111;-77
2021/09/17 07:50:48;;;;;;;1999.90;999.90;;;;;;;11.58;54.20;100933.78;4983283;28;97915;-77
2021/09/17 07:53:16;;;;;;;1999.90;999.90;;;;;;;11.87;53.22;100937.88;4978617;28;97079;-78
2021/09/17 07:55:44;;;;;;;1999.90;999.90;;;;;;;11.99;52.79;100933.66;4985581;28;96950;-78
2021/09/17 07:58:14;;;;;;;1999.90;999.90;;;;;;;12.08;52.69;100932.91;4984003;28;100322;-77
2021/09/17 08:00:41;;;;;;;1999.90;999.90;;;;;;;12.15;52.49;100933.06;4985354;28;97865;-77
2021/09/17 08:03:09;;;;;;;1999.90;999.90;;;;;;;11.77;53.64;100936.81;4971953;28;96879;-77
2021/09/17 08:05:37;;;;;;;1999.90;999.90;;;;;;;11.63;54.20;100937.41;4987102;28;97639;-78
2021/09/17 08:08:06;;;;;;;1999.90;999.90;;;;;;;11.55;54.36;100942.59;4986646;28;99682;-78
2021/09/17 08:10:34;;;;;;;1999.90;999.90;;;;;;;11.48;54.44;100932.69;5004290;28;97824;-78
2021/09/17 08:13:02;;;;;;;1999.90;999.90;;;;;;;11.44;54.68;100941.47;4987552;28;97289;-79
2021/09/17 08:15:31;;;;;;;1999.90;999.90;;;;;;;11.39;54.78;100940.50;4988052;28;96808;-79
2021/09/17 08:17:59;;;;;;;1999.90;999.90;;;;;;;11.37;54.82;100933.31;5002381;28;96832;-77
2021/09/17 08:20:28;;;;;;;1999.90;999.90;;;;;;;11.35;55.05;100946.63;4981507;28;99551;-78
2021/09/17 08:22:56;;;;;;;1999.90;999.90;;;;;;;11.37;55.02;100947.56;4988877;28;97436;-77
2021/09/17 08:25:24;;;;;;;1999.90;999.90;;;;;;;11.37;55.03;100950.22;4980044;28;96852;-77
2021/09/17 08:27:52;;;;;;;1999.90;999.90;;;;;;;11.36;55.06;100947.53;4986466;28;98055;-78
2021/09/17 08:30:20;;;;;;;1999.90;999.90;;;;;;;11.36;54.93;100952.88;4981896;28;97331;-77
2021/09/17 08:32:50;;;;;;;1999.90;999.90;;;;;;;11.36;55.18;100951.06;4983380;28;97062;-78
2021/09/17 08:35:18;;;;;;;1999.90;999.90;;;;;;;11.36;55.10;100959.06;4968963;28;97030;-77
2021/09/17 08:37:47;;;;;;;1999.90;999.90;;;;;;;11.35;55.14;100957.28;4984072;28;99585;-78
2021/09/17 08:40:17;;;;;;;1999.90;999.90;;;;;;;11.36;55.07;100964.41;5000868;28;99171;-76
2021/09/17 08:42:45;;;;;;;1999.90;999.90;;;;;;;11.36;55.04;100956.41;4984867;28;97026;-78
2021/09/17 08:45:14;;;;;;;1999.90;999.90;;;;;;;11.35;55.09;100967.94;4985966;28;97763;-78
2021/09/17 08:47:47;;;;;;;1999.90;999.90;;;;;;;11.35;54.98;100962.63;4976524;28;99781;-79
2021/09/17 08:50:17;;;;;;;1999.90;999.90;;;;;;;11.39;54.82;100969.81;5001219;28;99707;-77
2021/09/17 08:52:45;;;;;;;1999.90;999.90;;;;;;;11.38;55.03;100973.31;4969555;28;95969;-77
2021/09/17 08:55:13;;;;;;;1999.90;999.90;;;;;;;11.73;54.26;100974.94;4977633;28;97123;-76
2021/09/17 08:57:43;;;;;;;1999.90;999.90;;;;;;;11.94;53.83;100978.00;4983419;28;98835;-78
2021/09/17 09:00:39;;;;;;;1999.90;999.90;;;;;;;12.06;53.91;100980.00;4981191;28;100102;-78
2021/09/17 09:03:09;;;;;;;1999.90;999.90;;;;;;;11.90;54.48;100980.59;4985608;28;97886;-78
2021/09/17 09:05:41;;;;;;;1999.90;999.90;;;;;;;12.24;53.76;100984.81;4965913;28;97240;-77
2021/09/17 09:08:09;;;;;;;1999.90;999.90;;;;;;;12.41;53.61;100986.00;4984407;28;96996;-77
2021/09/17 09:10:37;;;;;;;1999.90;999.90;;;;;;;12.51;53.41;100982.63;4984318;28;99574;-77
2021/09/17 09:13:07;;;;;;;1999.90;999.90;;;;;;;12.18;54.16;100991.81;4986024;28;97379;-77
2021/09/17 09:15:36;;;;;;;1999.90;999.90;;;;;;;12.06;54.29;100980.91;4977885;28;97049;-77
2021/09/17 09:18:09;;;;;;;1999.90;999.90;;;;;;;11.90;54.25;100980.59;4994829;28;98095;-79
2021/09/17 09:20:40;;;;;;;1999.90;999.90;;;;;;;11.81;54.85;100981.31;4982315;28;99259;-78
2021/09/17 09:23:14;;;;;;;1999.90;999.90;;;;;;;11.76;54.87;100987.44;4966120;28;97592;-78
2021/09/17 09:25:51;;;;;;;1999.90;999.90;;;;;;;11.67;54.85;100982.81;4983663;28;97018;-78
2021/09/17 09:28:20;;;;;;;1999.90;999.90;;;;;;;11.66;55.07;100975.69;4987098;28;99307;-77
2021/09/17 09:30:48;;;;;;;1999.90;999.90;;;;;;;11.66;54.90;100981.03;5002348;28;97803;-77
2021/09/17 09:33:24;;;;;;;1999.90;999.90;;;;;;;11.65;54.97;100981.88;4970682;28;96919;-77
2021/09/17 09:35:58;;;;;;;1999.90;999.90;;;;;;;11.65;54.83;100981.88;5000193;28;96914;-77
2021/09/17 09:38:35;;;;;;;1999.90;999.90;;;;;;;11.65;54.90;100976.53;4986647;28;100704;-78
2021/09/17 09:41:05;;;;;;;1999.90;999.90;;;;;;;11.67;54.76;100980.13;4960130;28;99809;-77
2021/09/17 09:43:35;;;;;;;1999.90;999.90;;;;;;;11.63;55.03;100975.63;4982433;28;97084;-77
2021/09/17 09:46:31;;;;;;;1999.90;999.90;;;;;;;11.52;55.18;100971.88;4969060;28;96950;-78
2021/09/17 09:49:10;;;;;;;1999.90;999.90;;;;;;;11.53;55.27;100970.97;4982651;28;101007;-77
2021/09/17 09:51:41;;;;;;;1999.90;999.90;;;;;;;11.47;55.31;100975.28;4966827;28;99859;-78
2021/09/17 09:54:11;;;;;;;1999.90;999.90;;;;;;;11.43;55.65;100970.75;4984486;28;97011;-78
2021/09/17 09:56:42;;;;;;;1999.90;999.90;;;;;;;11.77;54.66;100976.81;4963968;28;97078;-78
2021/09/17 09:59:10;;;;;;;1999.90;999.90;;;;;;;11.95;53.84;100968.22;4980451;28;98845;-77
2021/09/17 10:01:39;;;;;;;1999.90;999.90;;;;;;;12.00;53.65;100966.53;4980300;28;99379;-77
2021/09/17 10:04:08;;;;;;;1999.90;999.90;;;;;;;11.69;54.78;100965.06;4981383;28;99063;-77
2021/09/17 10:06:39;;;;;;;1999.90;999.90;;;;;;;11.63;54.73;100956.97;4981276;28;96961;-77
2021/09/17 10:09:09;;;;;;;1999.90;999.90;;;;;;;11.63;54.99;100970.31;4979844;28;100572;-77
2021/09/17 10:11:37;;;;;;;1999.90;999.90;;;;;;;11.59;54.79;100960.44;4982248;28;97084;-78
2021/09/17 10:14:08;;;;;;;1999.90;999.90;;;;;;;11.99;53.52;100960.34;4982368;28;97011;-77
2021/09/17 10:16:36;;;;;;;1999.90;999.90;;;;;;;11.83;54.09;100976.03;4980209;28;97065;-78
2021/09/17 10:19:05;;;;;;;1999.90;999.90;;;;;;;11.77;54.18;100968.81;4982535;28;98904;-78
2021/09/17 10:21:58;;;;;;;1999.90;999.90;;;;;;;11.72;53.40;100965.16;4981981;28;97536;-77
2021/09/17 10:24:45;;;;;;;1999.90;999.90;;;;;;;11.72;54.08;100965.16;4967772;28;96852;-77
2021/09/17 10:27:20;;;;;;;1999.90;999.90;;;;;;;11.73;54.04;100963.38;4957781;28;97019;-77
2021/09/17 10:29:57;;;;;;;1999.90;999.90;;;;;;;11.72;53.88;100961.59;4966866;28;99038;-77
2021/09/17 10:32:34;;;;;;;1999.90;999.90;;;;;;;11.70;54.04;100958.91;4999793;28;97916;-77
2021/09/17 10:35:10;;;;;;;1999.90;999.90;;;;;;;11.73;54.10;100958.94;4981874;28;97385;-77
2021/09/17 10:37:57;;;;;;;1999.90;999.90;;;;;;;11.65;53.89;100962.34;4971448;28;96960;-78
2021/09/17 10:40:51;;;;;;;1999.90;999.90;;;;;;;11.60;54.20;100964.00;4997078;28;98838;-77
2021/09/17 10:43:37;;;;;;;1999.90;999.90;;;;;;;11.55;54.66;100963.91;4989023;28;97554;-78
2021/09/17 10:46:32;;;;;;;1999.90;999.90;;;;;;;11.55;54.74;100957.69;4986627;28;97025;-78
2021/09/17 10:49:01;;;;;;;1999.90;999.90;;;;;;;11.57;54.49;100964.84;4971296;28;96910;-78
2021/09/17 10:51:32;;;;;;;1999.90;999.90;;;;;;;11.58;54.75;100955.97;4986548;28;98684;-77
2021/09/17 10:54:04;;;;;;;1999.90;999.90;;;;;;;11.59;54.31;100954.22;4978887;28;99749;-77
2021/09/17 10:57:09;;;;;;;1999.90;999.90;;;;;;;11.70;54.28;100960.66;4985237;28;96966;-77